Time;durP1;ratioP1;P1;durP2;ratioP2;P2;SDS_P1;SDS_P2;PMS_P1;PMS_P2;Temp;Humidity;BMP_temperature;BMP_pressure;BME280_temperature;BME280_humidity;BME280_pressure;Samples;Min_cycle;Max_cycle;Signal;HPM_P1;HPM_P2
2022/12/30 00:00:33;;;;;;;0.30;0.20;;;;;;;4.94;100.00;99995.25;5021351;28;20567;-51
2022/12/30 00:03:00;;;;;;;0.50;0.40;;;;;;;4.96;100.00;99993.47;5028355;28;20832;-51
2022/12/30 00:05:26;;;;;;;0.60;0.60;;;;;;;4.86;100.00;100005.00;5027727;28;20543;-52
2022/12/30 00:07:53;;;;;;;1.43;0.47;;;;;;;4.78;100.00;100019.97;5026200;28;20450;-50
2022/12/30 00:10:19;;;;;;;3.50;0.53;;;;;;;4.72;100.00;100010.38;5033444;28;20482;-51
2022/12/30 00:35:20;;;;;;;0.70;0.70;;;;;;;5.85;100.00;100011.69;5021168;28;20459;-51
2022/12/30 00:37:46;;;;;;;0.40;0.30;;;;;;;5.94;100.00;100006.34;5031720;28;20483;-51
2022/12/30 00:40:17;;;;;;;1.40;0.90;;;;;;;5.92;100.00;99994.94;5025874;28;20477;-51
2022/12/30 00:45:29;;;;;;;2.90;1.50;;;;;;;5.73;100.00;100003.94;5026012;28;20444;-50
2022/12/30 00:47:55;;;;;;;3.80;2.00;;;;;;;5.75;100.00;100010.06;5031472;28;20522;-51
2022/12/30 00:56:10;;;;;;;3.47;1.17;;;;;;;5.89;100.00;100009.00;5020265;28;20444;-51
2022/12/30 00:58:37;;;;;;;0.80;0.40;;;;;;;6.18;100.00;100005.09;5023103;28;21006;-51
2022/12/30 01:01:03;;;;;;;0.70;0.67;;;;;;;6.19;100.00;100010.34;5019537;28;20475;-50
2022/12/30 01:03:30;;;;;;;7.73;2.10;;;;;;;6.40;100.00;100016.19;5023260;28;20452;-51
2022/12/30 01:05:56;;;;;;;0.47;0.47;;;;;;;6.39;100.00;100022.34;5026895;28;20452;-51
2022/12/30 01:08:23;;;;;;;0.40;0.40;;;;;;;6.10;100.00;100036.00;5028932;28;20448;-51
2022/12/30 01:10:49;;;;;;;4.73;0.43;;;;;;;6.02;100.00;100037.84;5029698;28;20894;-51
2022/12/30 01:13:15;;;;;;;5.50;1.33;;;;;;;5.99;100.00;100059.00;5022308;28;20456;-51
2022/12/30 01:15:42;;;;;;;0.40;0.27;;;;;;;5.83;100.00;100069.75;5026798;28;20548;-53
2022/12/30 01:18:08;;;;;;;1.10;0.40;;;;;;;5.52;100.00;100061.34;5023866;28;20498;-51
2022/12/30 01:20:36;;;;;;;1.03;0.27;;;;;;;5.41;100.00;100067.63;5025741;28;20479;-51
2022/12/30 01:23:03;;;;;;;0.63;0.63;;;;;;;5.12;100.00;100068.81;5024942;28;20447;-50
2022/12/30 01:25:29;;;;;;;0.43;0.43;;;;;;;5.06;100.00;100068.84;5019672;28;20960;-50
2022/12/30 01:27:55;;;;;;;0.30;0.20;;;;;;;4.90;100.00;100062.88;5020916;28;20473;-50
2022/12/30 01:30:22;;;;;;;0.53;0.33;;;;;;;4.81;100.00;100070.00;5026309;28;20473;-50
2022/12/30 01:32:48;;;;;;;0.50;0.50;;;;;;;4.77;100.00;100071.75;5025190;28;20455;-50
2022/12/30 01:35:15;;;;;;;1.20;0.80;;;;;;;4.96;100.00;100081.25;5019568;28;20470;-51
2022/12/30 01:37:41;;;;;;;1.13;0.90;;;;;;;5.04;100.00;100082.03;5030774;28;20498;-51
2022/12/30 01:40:08;;;;;;;1.53;0.40;;;;;;;5.18;100.00;100081.03;5026891;28;20480;-51
2022/12/30 01:42:39;;;;;;;1.83;0.93;;;;;;;5.09;100.00;100081.16;5024921;28;20452;-51
2022/12/30 01:45:17;;;;;;;2.77;1.50;;;;;;;4.92;100.00;100087.41;5031338;28;20476;-52
2022/12/30 01:47:47;;;;;;;9.73;1.00;;;;;;;4.84;100.00;100089.25;5032242;28;20530;-51
2022/12/30 01:50:20;;;;;;;1.33;1.00;;;;;;;4.79;100.00;100087.53;5016898;28;20560;-51
2022/12/30 01:52:53;;;;;;;0.30;0.20;;;;;;;4.72;100.00;100090.25;5021099;28;20449;-51
2022/12/30 01:55:40;;;;;;;1.57;0.50;;;;;;;4.77;100.00;100090.19;5023370;28;20448;-50
2022/12/30 01:58:15;;;;;;;0.30;0.20;;;;;;;4.85;100.00;100092.78;5025742;28;20862;-51
2022/12/30 02:00:42;;;;;;;6.13;1.27;;;;;;;4.87;100.00;100105.03;5018266;28;20833;-50
2022/12/30 02:03:09;;;;;;;0.67;0.60;;;;;;;4.91;100.00;100112.00;5025455;28;20456;-51
2022/12/30 02:05:39;;;;;;;3.13;0.50;;;;;;;4.98;100.00;100111.09;5025235;28;20450;-51
2022/12/30 02:08:10;;;;;;;0.53;0.53;;;;;;;4.91;100.00;100119.03;5025426;28;20526;-50
2022/12/30 02:10:42;;;;;;;4.33;0.47;;;;;;;4.95;100.00;100115.50;5019221;28;20576;-50
2022/12/30 02:13:13;;;;;;;0.40;0.30;;;;;;;4.97;100.00;100114.59;5023183;28;20556;-51
2022/12/30 02:16:01;;;;;;;0.50;0.50;;;;;;;5.04;100.00;100120.69;5027258;28;20452;-50
2022/12/30 02:18:45;;;;;;;0.53;0.53;;;;;;;4.99;100.00;100111.97;5023115;28;20491;-50
2022/12/30 02:21:40;;;;;;;0.40;0.20;;;;;;;4.99;100.00;100114.59;5021675;28;20444;-51
2022/12/30 02:24:33;;;;;;;6.23;1.43;;;;;;;4.84;100.00;100109.47;5019126;28;20450;-50
2022/12/30 02:27:15;;;;;;;0.60;0.60;;;;;;;4.57;100.00;100119.31;5018956;28;20451;-50
2022/12/30 02:30:02;;;;;;;0.30;0.20;;;;;;;4.63;100.00;100121.00;5002409;28;20468;-51
2022/12/30 02:32:47;;;;;;;1.00;0.90;;;;;;;4.69;100.00;100132.38;5020854;28;20447;-51
2022/12/30 02:35:24;;;;;;;1.80;1.80;;;;;;;4.59;100.00;100124.56;5018983;28;20450;-51
2022/12/30 02:37:59;;;;;;;0.30;0.20;;;;;;;4.54;100.00;100123.72;5026218;28;20491;-50
2022/12/30 02:46:15;;;;;;;2.20;1.70;;;;;;;4.25;100.00;100116.91;5043792;28;20496;-50
2022/12/30 02:48:47;;;;;;;2.20;1.50;;;;;;;4.10;100.00;100128.34;5028940;28;20506;-51
2022/12/30 02:54:02;;;;;;;0.40;0.40;;;;;;;4.08;100.00;100122.22;5024859;28;20526;-51
2022/12/30 02:56:28;;;;;;;2.33;0.77;;;;;;;4.09;100.00;100128.34;5018584;28;20455;-51
2022/12/30 03:05:01;;;;;;;6.23;1.13;;;;;;;3.97;100.00;100124.03;5028303;28;20538;-51
2022/12/30 03:07:47;;;;;;;3.60;0.70;;;;;;;4.14;100.00;100121.34;5030294;28;20957;-51
2022/12/30 03:13:09;;;;;;;0.30;0.20;;;;;;;3.95;100.00;100136.31;5020526;28;20451;-51
2022/12/30 03:15:51;;;;;;;0.40;0.30;;;;;;;3.86;100.00;100142.50;5024880;28;21474;-50
2022/12/30 03:18:20;;;;;;;2.33;0.63;;;;;;;3.74;100.00;100144.31;5027206;28;20491;-51
2022/12/30 03:20:49;;;;;;;1.90;0.63;;;;;;;3.72;100.00;100132.91;5022195;28;20538;-51
2022/12/30 03:28:50;;;;;;;0.30;0.30;;;;;;;3.80;100.00;100128.50;5028429;28;20464;-51
2022/12/30 03:31:18;;;;;;;1.20;1.20;;;;;;;3.64;100.00;100134.69;5027083;28;20451;-51
2022/12/30 03:33:45;;;;;;;1.97;1.90;;;;;;;3.80;100.00;100134.63;5029279;28;20457;-50
2022/12/30 03:36:36;;;;;;;1.27;1.03;;;;;;;3.83;100.00;100139.88;5020188;28;20459;-50
2022/12/30 03:39:21;;;;;;;0.40;0.40;;;;;;;3.89;100.00;100122.34;5023707;28;20545;-50
2022/12/30 03:41:49;;;;;;;0.40;0.33;;;;;;;3.94;100.00;100125.81;5021565;28;20506;-50
2022/12/30 03:44:20;;;;;;;0.30;0.30;;;;;;;4.09;100.00;100117.84;5026781;28;20464;-51
2022/12/30 03:46:47;;;;;;;3.03;0.97;;;;;;;4.14;100.00;100110.81;5034892;28;20447;-51
2022/12/30 03:49:15;;;;;;;0.60;0.47;;;;;;;4.15;100.00;100105.56;5034756;28;20486;-50
2022/12/30 03:51:41;;;;;;;4.23;1.33;;;;;;;4.22;100.00;100106.38;5021385;28;20452;-50
2022/12/30 03:54:08;;;;;;;0.53;0.53;;;;;;;4.15;100.00;100105.56;5027680;28;20451;-51
2022/12/30 03:56:34;;;;;;;0.60;0.40;;;;;;;4.14;100.00;100113.44;5021585;28;20444;-51
2022/12/30 03:59:01;;;;;;;5.87;0.97;;;;;;;4.14;100.00;100122.22;5021437;28;20871;-51
2022/12/30 04:01:27;;;;;;;0.40;0.40;;;;;;;4.20;100.00;100136.19;5027840;28;20452;-50
2022/12/30 04:03:54;;;;;;;0.73;0.47;;;;;;;4.27;100.00;100137.94;5027558;28;20456;-51
2022/12/30 04:06:20;;;;;;;0.53;0.53;;;;;;;4.32;100.00;100118.59;5021525;28;20836;-50
2022/12/30 04:08:47;;;;;;;4.00;1.10;;;;;;;4.44;100.00;100123.78;5034136;28;20471;-51
2022/12/30 04:11:13;;;;;;;2.00;0.80;;;;;;;4.39;100.00;100128.22;5021670;28;20803;-51
2022/12/30 04:13:39;;;;;;;1.30;0.70;;;;;;;4.59;100.00;100130.69;5020366;28;20463;-51
2022/12/30 04:16:07;;;;;;;2.70;0.80;;;;;;;4.53;100.00;100127.25;5021688;28;20454;-50
2022/12/30 04:18:33;;;;;;;0.50;0.43;;;;;;;4.62;100.00;100129.81;5020606;28;20499;-51
2022/12/30 04:21:00;;;;;;;1.80;0.83;;;;;;;4.70;100.00;100133.25;5027179;28;20503;-52
2022/12/30 04:23:26;;;;;;;1.13;0.73;;;;;;;4.71;100.00;100135.00;5028018;28;20462;-51
2022/12/30 04:25:53;;;;;;;3.43;0.47;;;;;;;4.72;100.00;100131.50;5025228;28;20507;-51
2022/12/30 04:28:19;;;;;;;1.17;1.17;;;;;;;4.78;100.00;100131.44;5027002;28;20447;-50
2022/12/30 04:30:49;;;;;;;0.80;0.80;;;;;;;4.72;100.00;100134.13;5021723;28;20447;-51
2022/12/30 04:33:15;;;;;;;1.33;0.70;;;;;;;4.64;100.00;100114.88;5027767;28;20498;-51
2022/12/30 04:35:41;;;;;;;1.33;0.93;;;;;;;4.51;100.00;100118.47;5022699;28;20464;-50
2022/12/30 04:38:08;;;;;;;6.97;1.17;;;;;;;4.73;100.00;100115.69;5026923;28;20507;-50
2022/12/30 04:40:34;;;;;;;0.30;0.30;;;;;;;4.86;100.00;100115.59;5022039;28;20467;-50
2022/12/30 04:43:01;;;;;;;5.60;1.30;;;;;;;4.92;100.00;100118.16;5020328;28;20462;-51
2022/12/30 04:45:27;;;;;;;2.60;1.40;;;;;;;5.05;100.00;100118.03;5041946;28;20461;-51
2022/12/30 04:47:54;;;;;;;0.63;0.63;;;;;;;5.28;100.00;100115.19;5036770;28;20501;-51
2022/12/30 04:50:20;;;;;;;0.50;0.50;;;;;;;5.30;100.00;100120.44;5023917;28;20471;-51
2022/12/30 04:52:46;;;;;;;5.73;0.70;;;;;;;5.52;100.00;100121.09;5025639;28;20456;-51
2022/12/30 04:55:13;;;;;;;1.20;0.70;;;;;;;5.65;100.00;100123.59;5022312;28;20451;-51
2022/12/30 04:57:39;;;;;;;1.83;1.33;;;;;;;5.91;100.00;100135.63;5022798;28;20451;-51
2022/12/30 05:00:06;;;;;;;0.50;0.40;;;;;;;5.88;100.00;100125.06;5021121;28;20546;-55
2022/12/30 05:02:33;;;;;;;0.50;0.40;;;;;;;5.87;100.00;100131.22;5026469;28;20463;-52
2022/12/30 05:05:00;;;;;;;0.70;0.37;;;;;;;5.76;100.00;100134.03;5023231;28;20484;-52
2022/12/30 05:07:26;;;;;;;10.33;0.90;;;;;;;5.71;100.00;100132.31;5031969;28;20463;-52
2022/12/30 05:09:53;;;;;;;0.40;0.20;;;;;;;5.62;100.00;100136.81;5031576;28;20474;-51
2022/12/30 05:12:20;;;;;;;2.10;0.50;;;;;;;5.67;100.00;100135.88;5020034;28;20457;-51
2022/12/30 05:14:46;;;;;;;2.93;1.43;;;;;;;5.75;100.00;100145.44;5024320;28;20449;-51
2022/12/30 05:17:13;;;;;;;0.80;0.80;;;;;;;5.76;100.00;100148.97;5028566;28;20452;-50
2022/12/30 05:19:39;;;;;;;5.20;1.33;;;;;;;5.80;100.00;100148.91;5031896;28;20494;-49
2022/12/30 05:22:05;;;;;;;0.57;0.47;;;;;;;5.85;100.00;100146.19;5029280;28;20452;-50
2022/12/30 05:27:17;;;;;;;9.03;2.30;;;;;;;5.93;100.00;100137.34;5019852;28;20454;-54
2022/12/30 05:29:43;;;;;;;61.00;1.13;;;;;;;5.90;100.00;100139.16;5025751;28;20463;-54
2022/12/30 05:32:10;;;;;;;1.50;1.40;;;;;;;5.88;100.00;100139.13;5017437;28;20455;-55
2022/12/30 05:34:36;;;;;;;15.00;0.87;;;;;;;5.90;100.00;100133.88;5016873;28;20449;-54
2022/12/30 05:37:03;;;;;;;1.17;1.03;;;;;;;5.86;100.00;100140.03;5030595;28;20490;-55
2022/12/30 05:39:30;;;;;;;0.50;0.50;;;;;;;5.90;100.00;100145.31;5031993;28;20900;-54
2022/12/30 05:41:57;;;;;;;0.40;0.37;;;;;;;5.90;100.00;100136.53;5019355;28;20538;-54
2022/12/30 05:44:25;;;;;;;12.90;1.47;;;;;;;5.96;100.00;100138.19;5022011;28;20961;-54
2022/12/30 05:46:52;;;;;;;1.40;1.33;;;;;;;6.02;100.00;100143.38;5023421;28;20451;-54
2022/12/30 05:49:18;;;;;;;1.57;1.40;;;;;;;5.95;100.00;100147.88;5026294;28;20468;-55
2022/12/30 05:51:45;;;;;;;7.10;0.73;;;;;;;5.97;100.00;100150.50;5018674;28;20533;-53
2022/12/30 05:54:11;;;;;;;1.03;0.43;;;;;;;6.09;100.00;100155.63;5029554;28;20467;-53
2022/12/30 05:56:37;;;;;;;0.70;0.70;;;;;;;6.17;100.00;100159.94;5026135;28;20550;-55
2022/12/30 05:59:04;;;;;;;1.80;1.10;;;;;;;6.29;100.00;100163.28;5026123;28;20487;-53
2022/12/30 06:01:30;;;;;;;1.07;1.07;;;;;;;6.35;100.00;100163.22;5026381;28;20474;-54
2022/12/30 06:03:57;;;;;;;4.13;0.90;;;;;;;6.52;100.00;100156.78;5029026;28;20448;-54
2022/12/30 06:06:24;;;;;;;9.73;1.13;;;;;;;6.69;100.00;100158.31;5019951;28;20460;-54
2022/12/30 06:08:51;;;;;;;0.63;0.33;;;;;;;6.88;100.00;100157.16;5030318;28;20471;-55
2022/12/30 06:11:17;;;;;;;1.70;0.40;;;;;;;7.08;100.00;100149.75;5020117;28;20965;-55
2022/12/30 06:13:44;;;;;;;0.80;0.80;;;;;;;7.07;100.00;100149.78;5029428;28;20971;-55
2022/12/30 06:16:11;;;;;;;0.50;0.43;;;;;;;7.26;100.00;100145.91;5030278;28;20559;-54
2022/12/30 06:18:37;;;;;;;0.83;0.77;;;;;;;7.22;100.00;100148.66;5019292;28;20560;-55
2022/12/30 06:21:04;;;;;;;9.60;0.90;;;;;;;7.34;100.00;100149.31;5027493;28;20459;-54
2022/12/30 06:23:30;;;;;;;0.40;0.40;;;;;;;7.41;100.00;100156.25;5018869;28;20452;-55
2022/12/30 06:25:58;;;;;;;0.50;0.50;;;;;;;7.46;100.00;100155.28;5030818;28;20447;-54
2022/12/30 06:28:28;;;;;;;0.53;0.50;;;;;;;7.50;100.00;100152.53;5024945;28;20532;-55
2022/12/30 06:30:55;;;;;;;0.50;0.40;;;;;;;7.57;100.00;100150.69;5013870;28;21049;-54
2022/12/30 06:33:23;;;;;;;0.43;0.40;;;;;;;7.69;100.00;100155.75;5030030;28;20462;-54
2022/12/30 06:35:50;;;;;;;2.80;1.53;;;;;;;7.75;100.00;100150.31;5023861;28;20448;-55
2022/12/30 06:38:16;;;;;;;3.90;0.57;;;;;;;7.80;100.00;100153.72;5028071;28;20502;-54
2022/12/30 06:40:44;;;;;;;1.37;1.00;;;;;;;7.81;100.00;100155.50;5013220;28;20503;-55
2022/12/30 06:43:11;;;;;;;0.83;0.63;;;;;;;8.02;100.00;100148.91;5023738;28;20453;-54
2022/12/30 06:45:38;;;;;;;1.10;1.00;;;;;;;7.88;100.00;100149.19;5032123;28;20586;-55
2022/12/30 06:48:05;;;;;;;0.70;0.60;;;;;;;7.88;100.00;100151.81;5028483;28;20981;-54
2022/12/30 06:50:31;;;;;;;6.27;0.90;;;;;;;7.94;100.00;100148.16;5021856;28;20467;-54
2022/12/30 06:52:58;;;;;;;4.20;1.63;;;;;;;7.85;100.00;100148.38;5025641;28;20456;-54
2022/12/30 06:55:24;;;;;;;0.70;0.47;;;;;;;7.84;100.00;100144.84;5027589;28;20452;-55
2022/12/30 06:58:00;;;;;;;1.87;1.00;;;;;;;7.89;100.00;100150.03;5022906;28;20447;-54
2022/12/30 07:00:27;;;;;;;0.87;0.83;;;;;;;8.00;100.00;100141.00;5023519;28;20500;-54
2022/12/30 07:02:53;;;;;;;3.70;0.87;;;;;;;7.95;100.00;100132.28;5033724;28;20447;-55
2022/12/30 07:05:20;;;;;;;1.03;0.83;;;;;;;7.93;100.00;100128.78;5024647;28;20460;-53
2022/12/30 07:07:46;;;;;;;8.93;1.50;;;;;;;7.87;100.00;100118.31;5035270;28;20469;-54
2022/12/30 07:10:13;;;;;;;4.33;0.70;;;;;;;8.09;100.00;100124.06;5021173;28;20476;-55
2022/12/30 07:12:39;;;;;;;8.57;1.77;;;;;;;8.07;100.00;100119.69;5029888;28;20890;-55
2022/12/30 07:15:06;;;;;;;0.93;0.70;;;;;;;8.03;100.00;100127.69;5035314;28;20459;-55
2022/12/30 07:17:33;;;;;;;2.20;1.83;;;;;;;8.09;100.00;100128.47;5022561;28;20938;-54
2022/12/30 07:19:59;;;;;;;0.40;0.30;;;;;;;8.14;100.00;100126.59;5028856;28;20573;-54
2022/12/30 07:22:26;;;;;;;2.20;0.80;;;;;;;8.08;100.00;100132.00;5020684;28;21025;-55
2022/12/30 07:24:52;;;;;;;6.80;1.37;;;;;;;8.09;100.00;100125.84;5028683;28;20451;-53
2022/12/30 07:27:19;;;;;;;1.63;1.10;;;;;;;8.20;100.00;100119.38;5025765;28;20455;-54
2022/12/30 07:29:45;;;;;;;10.27;3.03;;;;;;;8.14;100.00;100121.31;5034042;28;20475;-54
2022/12/30 07:32:11;;;;;;;6.77;0.70;;;;;;;8.14;100.00;100126.59;5026266;28;20568;-55
2022/12/30 07:34:38;;;;;;;1.37;0.80;;;;;;;8.21;100.00;100117.59;5034123;28;20505;-54
2022/12/30 07:37:10;;;;;;;0.83;0.83;;;;;;;8.24;100.00;100120.22;5034181;28;20467;-54
2022/12/30 07:39:38;;;;;;;7.30;1.43;;;;;;;8.25;100.00;100137.84;5021515;28;20488;-55
2022/12/30 07:42:04;;;;;;;3.90;2.63;;;;;;;8.28;100.00;100133.34;5026154;28;20461;-55
2022/12/30 07:44:31;;;;;;;0.47;0.43;;;;;;;8.27;100.00;100133.38;5010899;28;20459;-55
2022/12/30 07:46:57;;;;;;;2.23;0.63;;;;;;;8.29;100.00;100134.22;5034362;28;20457;-55
2022/12/30 07:49:23;;;;;;;9.13;0.63;;;;;;;8.34;100.00;100137.66;5027825;28;20567;-54
2022/12/30 07:51:50;;;;;;;0.50;0.50;;;;;;;8.34;100.00;100142.94;5017405;28;20455;-54
2022/12/30 07:54:16;;;;;;;0.80;0.37;;;;;;;8.35;100.00;100135.88;5031758;28;20458;-54
2022/12/30 07:56:43;;;;;;;0.40;0.30;;;;;;;8.40;100.00;100132.22;5019280;28;20452;-55
2022/12/30 07:59:11;;;;;;;2.53;1.07;;;;;;;8.47;100.00;100135.59;5027868;28;20501;-54
2022/12/30 08:01:38;;;;;;;2.90;0.80;;;;;;;8.47;100.00;100117.06;5022624;28;20448;-53
2022/12/30 08:04:05;;;;;;;2.23;0.83;;;;;;;8.43;100.00;100123.34;5023643;28;20455;-55
2022/12/30 08:06:51;;;;;;;0.77;0.47;;;;;;;8.44;100.00;100125.94;5030236;28;20471;-55
2022/12/30 08:09:18;;;;;;;2.30;0.83;;;;;;;8.60;100.00;100123.81;5023409;28;20459;-55
2022/12/30 08:11:44;;;;;;;1.93;0.60;;;;;;;8.57;100.00;100126.53;5030493;28;20455;-55
2022/12/30 08:14:10;;;;;;;5.00;1.30;;;;;;;8.54;100.00;100106.31;5028339;28;20457;-54
2022/12/30 08:16:37;;;;;;;1.57;0.80;;;;;;;8.56;100.00;100107.13;5029373;28;20458;-55
2022/12/30 08:19:03;;;;;;;0.40;0.30;;;;;;;8.62;100.00;100111.41;5023509;28;20488;-55
2022/12/30 08:21:30;;;;;;;2.77;1.07;;;;;;;8.61;100.00;100094.63;5023844;28;20452;-55
2022/12/30 08:23:56;;;;;;;1.13;0.87;;;;;;;8.65;100.00;100091.94;5021192;28;20544;-55
2022/12/30 08:26:23;;;;;;;0.37;0.30;;;;;;;8.71;100.00;100089.13;5032405;28;20450;-55
2022/12/30 08:28:51;;;;;;;1.47;0.80;;;;;;;8.78;100.00;100078.34;5018447;28;20460;-55
2022/12/30 08:31:21;;;;;;;0.87;0.87;;;;;;;8.80;100.00;100081.84;5026082;28;20452;-55
2022/12/30 08:33:48;;;;;;;2.30;0.93;;;;;;;8.84;100.00;100074.66;5020713;28;20518;-56
2022/12/30 08:36:17;;;;;;;0.50;0.47;;;;;;;8.83;100.00;100071.16;5021656;28;20448;-56
2022/12/30 08:38:48;;;;;;;3.40;0.90;;;;;;;8.92;100.00;100072.72;5019596;28;20523;-55
2022/12/30 08:41:14;;;;;;;6.83;0.90;;;;;;;8.98;100.00;100076.97;5005618;28;20455;-55
2022/12/30 08:43:41;;;;;;;5.97;1.23;;;;;;;9.01;100.00;100066.28;5020751;28;20456;-55
2022/12/30 08:46:08;;;;;;;5.13;0.90;;;;;;;9.07;100.00;100058.19;5030280;28;20451;-55
2022/12/30 08:48:35;;;;;;;7.70;0.97;;;;;;;8.99;100.00;100050.41;5029637;28;20559;-55
2022/12/30 08:51:02;;;;;;;0.60;0.57;;;;;;;9.05;100.00;100058.22;5031068;28;20446;-55
2022/12/30 08:53:29;;;;;;;1.37;0.50;;;;;;;9.08;100.00;100055.50;5021878;28;20448;-55
2022/12/30 08:56:07;;;;;;;0.57;0.43;;;;;;;9.15;100.00;100051.75;5019953;28;20947;-56
2022/12/30 08:58:34;;;;;;;3.90;0.70;;;;;;;9.19;100.00;100057.88;5030002;28;20995;-56
2022/12/30 09:01:09;;;;;;;11.03;1.37;;;;;;;9.22;100.00;100047.16;5019685;28;21021;-55
2022/12/30 09:03:37;;;;;;;0.90;0.80;;;;;;;9.40;100.00;100054.63;5025356;28;20454;-55
2022/12/30 09:06:05;;;;;;;2.20;0.60;;;;;;;9.44;100.00;100042.13;5020243;28;20452;-55
2022/12/30 09:08:32;;;;;;;2.10;0.70;;;;;;;9.50;100.00;100034.00;5022195;28;20467;-56
2022/12/30 09:11:00;;;;;;;14.33;0.87;;;;;;;9.47;100.00;100011.09;5019039;28;20475;-55
2022/12/30 09:13:27;;;;;;;0.43;0.43;;;;;;;9.64;100.00;100007.09;5024896;28;20452;-55
2022/12/30 09:15:55;;;;;;;1.53;1.40;;;;;;;9.56;100.00;100007.28;5021563;28;20452;-55
2022/12/30 09:18:22;;;;;;;3.90;0.73;;;;;;;9.80;100.00;99995.09;5021657;28;20450;-55
2022/12/30 09:20:48;;;;;;;7.53;1.50;;;;;;;9.86;99.67;99999.34;5029505;28;20487;-55
2022/12/30 09:23:15;;;;;;;3.83;1.40;;;;;;;9.55;100.00;99992.28;5031590;28;20949;-54
2022/12/30 09:25:41;;;;;;;5.50;0.80;;;;;;;9.64;100.00;99983.19;5026275;28;20475;-55
2022/12/30 09:28:08;;;;;;;10.70;0.97;;;;;;;9.59;100.00;99970.03;5026264;28;20543;-55
2022/12/30 09:30:35;;;;;;;2.87;1.20;;;;;;;9.65;100.00;99967.22;5026139;28;20476;-55
2022/12/30 09:33:01;;;;;;;0.60;0.60;;;;;;;9.59;99.83;99966.53;5026929;28;20942;-55
2022/12/30 09:35:27;;;;;;;2.10;0.77;;;;;;;9.58;100.00;99965.66;5019592;28;20478;-55
2022/12/30 09:37:54;;;;;;;24.07;0.67;;;;;;;9.70;100.00;99962.63;5014809;28;20455;-56
2022/12/30 09:40:37;;;;;;;0.50;0.47;;;;;;;9.65;100.00;99961.91;5026718;28;20496;-55
2022/12/30 09:43:16;;;;;;;1.63;0.30;;;;;;;9.65;100.00;99964.56;5026242;28;20444;-56
2022/12/30 09:46:31;;;;;;;7.80;0.77;;;;;;;9.54;100.00;99961.38;5037288;28;20526;-55
2022/12/30 09:49:00;;;;;;;0.80;0.80;;;;;;;9.49;100.00;99968.59;5023221;28;20479;-56
2022/12/30 09:51:32;;;;;;;3.90;1.97;;;;;;;9.77;100.00;99976.63;5019132;28;20547;-56
2022/12/30 09:54:10;;;;;;;1.63;1.17;;;;;;;9.60;100.00;99973.59;5025293;28;20447;-56
2022/12/30 09:56:39;;;;;;;0.77;0.77;;;;;;;9.43;100.00;99969.63;5019524;28;20443;-56
2022/12/30 09:59:19;;;;;;;2.30;1.23;;;;;;;9.23;100.00;99969.34;5019407;28;20468;-55
2022/12/30 10:01:56;;;;;;;2.33;1.07;;;;;;;9.28;100.00;99958.59;5021310;28;20531;-55
2022/12/30 10:04:26;;;;;;;0.40;0.30;;;;;;;9.42;100.00;99949.31;5019908;28;20575;-55
2022/12/30 10:07:16;;;;;;;4.00;0.50;;;;;;;9.36;100.00;99935.38;5025598;28;20478;-54
2022/12/30 10:09:55;;;;;;;1.23;0.70;;;;;;;9.40;100.00;99932.59;5022962;28;20470;-54
2022/12/30 10:12:34;;;;;;;1.97;0.47;;;;;;;9.30;100.00;99922.28;5018818;28;20456;-54
2022/12/30 10:15:13;;;;;;;0.60;0.50;;;;;;;9.28;100.00;99919.69;5027451;28;20452;-54
2022/12/30 10:17:52;;;;;;;0.60;0.53;;;;;;;9.52;100.00;99912.78;5017916;28;20455;-54
2022/12/30 10:20:41;;;;;;;4.30;1.13;;;;;;;9.59;100.00;99924.06;5025435;28;20858;-55
2022/12/30 10:23:14;;;;;;;0.60;0.30;;;;;;;9.46;100.00;99918.28;5024801;28;20452;-55
2022/12/30 10:25:52;;;;;;;0.77;0.50;;;;;;;9.34;100.00;99913.34;5019918;28;20458;-54
2022/12/30 10:28:27;;;;;;;0.60;0.40;;;;;;;9.22;100.00;99908.41;5038548;28;21013;-55
2022/12/30 10:30:53;;;;;;;5.20;0.47;;;;;;;9.06;100.00;99905.34;5015150;28;20930;-55
2022/12/30 10:33:21;;;;;;;4.83;1.50;;;;;;;9.08;100.00;99899.06;5027475;28;20449;-54
2022/12/30 10:35:53;;;;;;;1.00;0.30;;;;;;;9.09;100.00;99895.50;5030667;28;20453;-54
2022/12/30 10:38:30;;;;;;;1.20;1.07;;;;;;;9.04;100.00;99885.91;5032008;28;20443;-53
2022/12/30 10:41:14;;;;;;;5.90;1.30;;;;;;;8.79;100.00;99867.22;5028980;28;20491;-55
2022/12/30 10:43:50;;;;;;;0.70;0.70;;;;;;;8.56;100.00;99873.16;5019287;28;20495;-54
2022/12/30 10:46:31;;;;;;;2.47;0.67;;;;;;;8.60;100.00;99873.00;5037013;28;20820;-54
2022/12/30 10:49:20;;;;;;;6.60;2.57;;;;;;;8.46;100.00;99885.75;5028184;28;20520;-54
2022/12/30 10:51:49;;;;;;;2.47;1.67;;;;;;;8.38;100.00;99879.81;5031726;28;20467;-54
2022/12/30 10:54:15;;;;;;;0.93;0.93;;;;;;;8.37;100.00;99880.72;5024846;28;20452;-54
2022/12/30 10:56:44;;;;;;;0.77;0.57;;;;;;;8.36;100.00;99875.44;5031467;28;20830;-54
2022/12/30 10:59:16;;;;;;;2.80;0.87;;;;;;;8.27;100.00;99869.47;5031724;28;20503;-55
2022/12/30 11:01:46;;;;;;;1.40;1.07;;;;;;;8.29;100.00;99861.47;5026946;28;20533;-54
2022/12/30 11:04:33;;;;;;;1.30;1.20;;;;;;;8.46;100.00;99869.00;5035267;28;20479;-54
2022/12/30 11:07:02;;;;;;;0.50;0.30;;;;;;;8.26;100.00;99867.72;5030061;28;20451;-54
2022/12/30 11:09:29;;;;;;;2.33;0.43;;;;;;;8.41;100.00;99865.63;5032833;28;20468;-55
2022/12/30 11:15:17;;;;;;;1.50;1.40;;;;;;;8.37;100.00;99840.13;5032559;28;20550;-55
2022/12/30 11:17:52;;;;;;;2.50;1.37;;;;;;;8.23;100.00;99832.53;5024920;28;20455;-55
2022/12/30 11:20:36;;;;;;;2.00;0.87;;;;;;;8.23;100.00;99843.13;5024822;28;20546;-54
2022/12/30 11:23:06;;;;;;;0.63;0.63;;;;;;;8.29;100.00;99842.94;5027901;28;20452;-54
2022/12/30 11:25:45;;;;;;;0.77;0.77;;;;;;;8.27;100.00;99826.22;5032234;28;20924;-53
2022/12/30 11:28:17;;;;;;;0.97;0.87;;;;;;;8.24;100.00;99824.53;5031099;28;20447;-54
2022/12/30 11:30:58;;;;;;;2.60;0.70;;;;;;;8.23;100.00;99819.28;5025018;28;20444;-53
2022/12/30 11:33:33;;;;;;;3.03;1.27;;;;;;;8.20;100.00;99803.47;5025994;28;20510;-54
2022/12/30 11:36:19;;;;;;;0.77;0.77;;;;;;;8.31;100.00;99799.63;5037438;28;20458;-61
2022/12/30 11:38:49;;;;;;;1.40;0.53;;;;;;;8.46;100.00;99794.84;5035070;28;20483;-53
2022/12/30 11:41:18;;;;;;;0.50;0.50;;;;;;;8.47;100.00;99792.16;5022378;28;20542;-52
2022/12/30 11:43:49;;;;;;;0.70;0.70;;;;;;;8.28;100.00;99775.88;5021961;28;20945;-53
2022/12/30 11:46:22;;;;;;;0.50;0.50;;;;;;;8.10;100.00;99764.94;5048293;28;20469;-53
2022/12/30 11:48:55;;;;;;;1.50;1.40;;;;;;;8.13;100.00;99755.13;5022073;28;20478;-53
2022/12/30 11:51:25;;;;;;;0.50;0.50;;;;;;;8.23;100.00;99755.75;5021407;28;20444;-53
2022/12/30 11:54:11;;;;;;;1.10;1.10;;;;;;;8.28;100.00;99752.06;5028176;28;20448;-53
2022/12/30 11:57:06;;;;;;;1.00;0.90;;;;;;;8.32;100.00;99758.97;5026447;28;20945;-53
2022/12/30 11:59:44;;;;;;;0.53;0.40;;;;;;;8.42;100.00;99756.13;5028314;28;20563;-53
2022/12/30 12:02:33;;;;;;;0.70;0.50;;;;;;;8.26;100.00;99745.94;5023416;28;20550;-53
2022/12/30 12:05:01;;;;;;;6.63;1.20;;;;;;;8.43;100.00;99740.19;5022683;28;20462;-53
2022/12/30 12:07:36;;;;;;;3.23;0.90;;;;;;;8.51;100.00;99730.25;5026580;28;20459;-52
2022/12/30 12:10:23;;;;;;;1.10;0.70;;;;;;;8.52;100.00;99726.69;5024474;28;20483;-54
2022/12/30 12:12:55;;;;;;;1.00;0.77;;;;;;;8.40;100.00;99721.75;5031122;28;20850;-53
2022/12/30 12:15:43;;;;;;;8.97;1.80;;;;;;;8.56;100.00;99722.16;5032342;28;20509;-52
2022/12/30 12:18:18;;;;;;;0.70;0.70;;;;;;;8.55;100.00;99709.81;5024784;28;20482;-52
2022/12/30 12:21:16;;;;;;;0.70;0.63;;;;;;;8.64;100.00;99700.75;5020434;28;20494;-56
2022/12/30 12:24:04;;;;;;;0.63;0.63;;;;;;;8.60;100.00;99689.34;5028829;28;20452;-53
2022/12/30 12:26:43;;;;;;;1.30;1.20;;;;;;;8.68;100.00;99678.53;5025775;28;20553;-53
2022/12/30 12:29:13;;;;;;;3.23;0.93;;;;;;;8.69;100.00;99686.44;5021154;28;20475;-53
2022/12/30 12:32:04;;;;;;;1.03;1.03;;;;;;;8.70;100.00;99671.41;5024274;28;20454;-53
2022/12/30 12:35:01;;;;;;;0.40;0.40;;;;;;;8.60;100.00;99673.47;5031962;28;20450;-52
2022/12/30 12:37:44;;;;;;;1.07;0.97;;;;;;;8.76;100.00;99672.06;5031518;28;20452;-53
2022/12/30 12:40:22;;;;;;;0.73;0.73;;;;;;;8.72;100.00;99674.88;5029122;28;20492;-52
2022/12/30 12:42:57;;;;;;;0.70;0.70;;;;;;;8.68;100.00;99666.16;5020277;28;20949;-54